sensor_id;sensor_type;location;lat;lon;timestamp;P1;durP1;ratioP1;P2;durP2;ratioP2
74679;SDS011;63211;48.548;2.704;2023-10-13T00:00:21;2.55;;;1.10;;
74679;SDS011;63211;48.548;2.704;2023-10-13T00:02:55;1.52;;;0.73;;
74679;SDS011;63211;48.548;2.704;2023-10-13T00:05:27;2.30;;;1.00;;
74679;SDS011;63211;48.548;2.704;2023-10-13T00:07:55;1.80;;;0.82;;
74679;SDS011;63211;48.548;2.704;2023-10-13T00:10:25;1.65;;;0.68;;
74679;SDS011;63211;48.548;2.704;2023-10-13T00:12:52;2.38;;;0.73;;
74679;SDS011;63211;48.548;2.704;2023-10-13T00:15:19;2.30;;;1.00;;
74679;SDS011;63211;48.548;2.704;2023-10-13T00:17:53;1.75;;;0.80;;
74679;SDS011;63211;48.548;2.704;2023-10-13T00:20:20;1.70;;;0.70;;
74679;SDS011;63211;48.548;2.704;2023-10-13T00:23:01;2.13;;;0.90;;
74679;SDS011;63211;48.548;2.704;2023-10-13T00:25:28;2.90;;;1.25;;
74679;SDS011;63211;48.548;2.704;2023-10-13T00:28:04;2.67;;;0.90;;
74679;SDS011;63211;48.548;2.704;2023-10-13T00:30:33;3.08;;;1.23;;
74679;SDS011;63211;48.548;2.704;2023-10-13T00:33:00;1.67;;;0.68;;
74679;SDS011;63211;48.548;2.704;2023-10-13T00:35:27;2.15;;;0.85;;
74679;SDS011;63211;48.548;2.704;2023-10-13T00:38:02;2.05;;;1.02;;
74679;SDS011;63211;48.548;2.704;2023-10-13T00:40:37;1.73;;;0.80;;
74679;SDS011;63211;48.548;2.704;2023-10-13T00:43:09;2.42;;;0.85;;
74679;SDS011;63211;48.548;2.704;2023-10-13T00:45:58;2.13;;;1.02;;
74679;SDS011;63211;48.548;2.704;2023-10-13T00:48:32;2.13;;;0.90;;
74679;SDS011;63211;48.548;2.704;2023-10-13T00:51:04;2.85;;;0.88;;
74679;SDS011;63211;48.548;2.704;2023-10-13T00:53:33;2.05;;;0.90;;
74679;SDS011;63211;48.548;2.704;2023-10-13T00:56:02;1.92;;;0.85;;
74679;SDS011;63211;48.548;2.704;2023-10-13T00:58:32;3.78;;;1.00;;
74679;SDS011;63211;48.548;2.704;2023-10-13T01:01:00;2.05;;;0.75;;
74679;SDS011;63211;48.548;2.704;2023-10-13T01:06:09;3.35;;;1.05;;
74679;SDS011;63211;48.548;2.704;2023-10-13T01:08:38;2.38;;;1.00;;
74679;SDS011;63211;48.548;2.704;2023-10-13T01:11:09;2.38;;;1.10;;
74679;SDS011;63211;48.548;2.704;2023-10-13T01:13:35;1.98;;;0.73;;
74679;SDS011;63211;48.548;2.704;2023-10-13T01:16:02;2.42;;;0.90;;
74679;SDS011;63211;48.548;2.704;2023-10-13T01:18:29;3.00;;;1.67;;
74679;SDS011;63211;48.548;2.704;2023-10-13T01:20:55;2.53;;;0.98;;
74679;SDS011;63211;48.548;2.704;2023-10-13T01:23:26;3.17;;;1.35;;
74679;SDS011;63211;48.548;2.704;2023-10-13T01:26:03;5.05;;;1.00;;
74679;SDS011;63211;48.548;2.704;2023-10-13T01:28:31;3.13;;;1.23;;
74679;SDS011;63211;48.548;2.704;2023-10-13T01:31:09;1.92;;;0.80;;
74679;SDS011;63211;48.548;2.704;2023-10-13T01:33:36;2.88;;;1.08;;
74679;SDS011;63211;48.548;2.704;2023-10-13T01:36:03;2.13;;;0.90;;
74679;SDS011;63211;48.548;2.704;2023-10-13T01:38:33;3.97;;;0.80;;
74679;SDS011;63211;48.548;2.704;2023-10-13T01:41:04;2.08;;;0.90;;
74679;SDS011;63211;48.548;2.704;2023-10-13T01:43:30;1.67;;;0.85;;
74679;SDS011;63211;48.548;2.704;2023-10-13T01:45:56;3.83;;;1.00;;
74679;SDS011;63211;48.548;2.704;2023-10-13T01:48:22;2.42;;;0.90;;
74679;SDS011;63211;48.548;2.704;2023-10-13T01:50:49;3.40;;;1.02;;
74679;SDS011;63211;48.548;2.704;2023-10-13T01:53:20;2.55;;;0.70;;
74679;SDS011;63211;48.548;2.704;2023-10-13T01:55:49;2.67;;;0.80;;
74679;SDS011;63211;48.548;2.704;2023-10-13T01:58:15;1.77;;;0.90;;
74679;SDS011;63211;48.548;2.704;2023-10-13T02:00:43;3.45;;;0.75;;
74679;SDS011;63211;48.548;2.704;2023-10-13T02:03:11;2.63;;;0.90;;
74679;SDS011;63211;48.548;2.704;2023-10-13T02:05:41;2.92;;;1.13;;
74679;SDS011;63211;48.548;2.704;2023-10-13T02:08:12;2.42;;;0.73;;
74679;SDS011;63211;48.548;2.704;2023-10-13T02:10:42;2.40;;;0.60;;
74679;SDS011;63211;48.548;2.704;2023-10-13T02:13:11;1.65;;;0.60;;
74679;SDS011;63211;48.548;2.704;2023-10-13T02:15:42;2.45;;;0.88;;
74679;SDS011;63211;48.548;2.704;2023-10-13T02:18:09;2.05;;;0.90;;
74679;SDS011;63211;48.548;2.704;2023-10-13T02:20:36;1.52;;;0.68;;
74679;SDS011;63211;48.548;2.704;2023-10-13T02:23:07;4.82;;;1.02;;
74679;SDS011;63211;48.548;2.704;2023-10-13T02:25:35;2.60;;;0.65;;
74679;SDS011;63211;48.548;2.704;2023-10-13T02:28:08;2.53;;;0.75;;
74679;SDS011;63211;48.548;2.704;2023-10-13T02:30:40;1.60;;;0.70;;
74679;SDS011;63211;48.548;2.704;2023-10-13T02:33:10;2.50;;;0.95;;
74679;SDS011;63211;48.548;2.704;2023-10-13T02:35:38;2.40;;;1.08;;
74679;SDS011;63211;48.548;2.704;2023-10-13T02:38:07;1.83;;;0.90;;
74679;SDS011;63211;48.548;2.704;2023-10-13T02:40:37;1.73;;;0.75;;
74679;SDS011;63211;48.548;2.704;2023-10-13T02:43:03;2.17;;;0.75;;
74679;SDS011;63211;48.548;2.704;2023-10-13T02:45:31;1.98;;;0.70;;
74679;SDS011;63211;48.548;2.704;2023-10-13T02:47:58;2.25;;;0.82;;
74679;SDS011;63211;48.548;2.704;2023-10-13T02:50:42;2.03;;;0.60;;
74679;SDS011;63211;48.548;2.704;2023-10-13T02:53:10;1.60;;;0.70;;
74679;SDS011;63211;48.548;2.704;2023-10-13T02:55:50;2.33;;;1.02;;
74679;SDS011;63211;48.548;2.704;2023-10-13T02:58:18;1.42;;;0.68;;
74679;SDS011;63211;48.548;2.704;2023-10-13T03:00:43;1.90;;;0.70;;
74679;SDS011;63211;48.548;2.704;2023-10-13T03:03:11;2.10;;;0.85;;
74679;SDS011;63211;48.548;2.704;2023-10-13T03:05:39;1.88;;;0.75;;
74679;SDS011;63211;48.548;2.704;2023-10-13T03:08:07;3.53;;;0.70;;
74679;SDS011;63211;48.548;2.704;2023-10-13T03:10:35;1.17;;;0.70;;
74679;SDS011;63211;48.548;2.704;2023-10-13T03:13:10;1.77;;;0.70;;
74679;SDS011;63211;48.548;2.704;2023-10-13T03:15:36;1.70;;;0.70;;
74679;SDS011;63211;48.548;2.704;2023-10-13T03:18:02;1.95;;;0.85;;
74679;SDS011;63211;48.548;2.704;2023-10-13T03:20:30;2.10;;;1.00;;
74679;SDS011;63211;48.548;2.704;2023-10-13T03:22:57;2.10;;;0.95;;
74679;SDS011;63211;48.548;2.704;2023-10-13T03:25:24;1.60;;;0.68;;
74679;SDS011;63211;48.548;2.704;2023-10-13T03:27:54;2.05;;;0.95;;
74679;SDS011;63211;48.548;2.704;2023-10-13T03:30:30;1.85;;;0.82;;
74679;SDS011;63211;48.548;2.704;2023-10-13T03:33:00;1.40;;;0.82;;
74679;SDS011;63211;48.548;2.704;2023-10-13T03:35:33;1.48;;;0.80;;
74679;SDS011;63211;48.548;2.704;2023-10-13T03:38:04;2.70;;;1.08;;
74679;SDS011;63211;48.548;2.704;2023-10-13T03:40:42;1.80;;;0.88;;
74679;SDS011;63211;48.548;2.704;2023-10-13T03:43:13;2.42;;;0.70;;
74679;SDS011;63211;48.548;2.704;2023-10-13T03:45:42;2.38;;;1.00;;
74679;SDS011;63211;48.548;2.704;2023-10-13T03:48:13;2.40;;;1.05;;
74679;SDS011;63211;48.548;2.704;2023-10-13T03:50:55;1.83;;;0.90;;
74679;SDS011;63211;48.548;2.704;2023-10-13T03:53:31;2.17;;;1.08;;
74679;SDS011;63211;48.548;2.704;2023-10-13T03:55:59;3.90;;;1.10;;
74679;SDS011;63211;48.548;2.704;2023-10-13T03:58:37;2.03;;;0.80;;
74679;SDS011;63211;48.548;2.704;2023-10-13T04:01:07;3.67;;;0.75;;
74679;SDS011;63211;48.548;2.704;2023-10-13T04:03:37;1.88;;;0.95;;
74679;SDS011;63211;48.548;2.704;2023-10-13T04:06:23;1.83;;;1.05;;
74679;SDS011;63211;48.548;2.704;2023-10-13T04:09:09;2.20;;;0.90;;
74679;SDS011;63211;48.548;2.704;2023-10-13T04:11:56;2.70;;;1.02;;
74679;SDS011;63211;48.548;2.704;2023-10-13T04:14:40;1.92;;;1.02;;
74679;SDS011;63211;48.548;2.704;2023-10-13T04:20:10;1.58;;;0.82;;
74679;SDS011;63211;48.548;2.704;2023-10-13T04:22:53;2.13;;;1.00;;
74679;SDS011;63211;48.548;2.704;2023-10-13T04:25:34;2.13;;;1.13;;
74679;SDS011;63211;48.548;2.704;2023-10-13T04:28:04;2.83;;;0.90;;
74679;SDS011;63211;48.548;2.704;2023-10-13T04:30:49;2.15;;;0.90;;
74679;SDS011;63211;48.548;2.704;2023-10-13T04:33:24;2.25;;;0.93;;
74679;SDS011;63211;48.548;2.704;2023-10-13T04:36:16;2.70;;;1.30;;
74679;SDS011;63211;48.548;2.704;2023-10-13T04:38:49;1.70;;;1.00;;
74679;SDS011;63211;48.548;2.704;2023-10-13T04:41:25;2.17;;;1.17;;
74679;SDS011;63211;48.548;2.704;2023-10-13T04:43:57;1.98;;;0.88;;
74679;SDS011;63211;48.548;2.704;2023-10-13T04:46:29;1.55;;;0.70;;
74679;SDS011;63211;48.548;2.704;2023-10-13T04:49:19;2.28;;;0.95;;
74679;SDS011;63211;48.548;2.704;2023-10-13T04:51:53;1.52;;;0.77;;
74679;SDS011;63211;48.548;2.704;2023-10-13T04:54:39;1.58;;;1.00;;
74679;SDS011;63211;48.548;2.704;2023-10-13T04:57:15;3.58;;;1.25;;
74679;SDS011;63211;48.548;2.704;2023-10-13T04:59:58;1.73;;;0.73;;
74679;SDS011;63211;48.548;2.704;2023-10-13T05:02:51;1.58;;;0.70;;
74679;SDS011;63211;48.548;2.704;2023-10-13T05:05:35;2.15;;;0.90;;
74679;SDS011;63211;48.548;2.704;2023-10-13T05:08:27;3.25;;;0.95;;
74679;SDS011;63211;48.548;2.704;2023-10-13T05:11:09;1.75;;;0.90;;
74679;SDS011;63211;48.548;2.704;2023-10-13T05:13:53;5.38;;;0.93;;
74679;SDS011;63211;48.548;2.704;2023-10-13T05:16:37;2.20;;;1.00;;
74679;SDS011;63211;48.548;2.704;2023-10-13T05:19:32;2.90;;;1.13;;
74679;SDS011;63211;48.548;2.704;2023-10-13T05:22:16;2.38;;;1.00;;
74679;SDS011;63211;48.548;2.704;2023-10-13T05:25:01;2.58;;;1.00;;
74679;SDS011;63211;48.548;2.704;2023-10-13T05:27:46;2.22;;;0.95;;
74679;SDS011;63211;48.548;2.704;2023-10-13T05:30:31;3.85;;;0.95;;
74679;SDS011;63211;48.548;2.704;2023-10-13T05:33:15;2.03;;;1.00;;
74679;SDS011;63211;48.548;2.704;2023-10-13T05:35:59;2.60;;;1.13;;
74679;SDS011;63211;48.548;2.704;2023-10-13T05:38:44;1.48;;;0.98;;
74679;SDS011;63211;48.548;2.704;2023-10-13T05:41:28;2.63;;;1.05;;
74679;SDS011;63211;48.548;2.704;2023-10-13T05:44:13;2.30;;;1.10;;
74679;SDS011;63211;48.548;2.704;2023-10-13T05:46:57;2.35;;;0.95;;
74679;SDS011;63211;48.548;2.704;2023-10-13T05:50:09;1.23;;;0.70;;
74679;SDS011;63211;48.548;2.704;2023-10-13T05:52:38;3.20;;;1.52;;
74679;SDS011;63211;48.548;2.704;2023-10-13T05:55:24;1.80;;;1.20;;
74679;SDS011;63211;48.548;2.704;2023-10-13T05:58:08;3.63;;;1.20;;
74679;SDS011;63211;48.548;2.704;2023-10-13T06:00:54;6.25;;;1.30;;
74679;SDS011;63211;48.548;2.704;2023-10-13T06:03:39;4.70;;;1.30;;
74679;SDS011;63211;48.548;2.704;2023-10-13T06:06:23;4.22;;;1.83;;
74679;SDS011;63211;48.548;2.704;2023-10-13T06:09:07;11.25;;;3.28;;
74679;SDS011;63211;48.548;2.704;2023-10-13T06:11:51;50.33;;;9.77;;
74679;SDS011;63211;48.548;2.704;2023-10-13T06:14:35;61.22;;;13.65;;
74679;SDS011;63211;48.548;2.704;2023-10-13T06:17:21;51.42;;;9.02;;
74679;SDS011;63211;48.548;2.704;2023-10-13T06:20:05;30.10;;;7.63;;
74679;SDS011;63211;48.548;2.704;2023-10-13T06:22:50;19.13;;;5.57;;
74679;SDS011;63211;48.548;2.704;2023-10-13T06:25:34;28.67;;;6.15;;
74679;SDS011;63211;48.548;2.704;2023-10-13T06:28:18;22.48;;;5.78;;
74679;SDS011;63211;48.548;2.704;2023-10-13T06:31:03;19.23;;;5.13;;
74679;SDS011;63211;48.548;2.704;2023-10-13T06:33:33;15.23;;;4.07;;
74679;SDS011;63211;48.548;2.704;2023-10-13T06:36:00;13.93;;;4.20;;
74679;SDS011;63211;48.548;2.704;2023-10-13T06:38:28;13.20;;;3.97;;
74679;SDS011;63211;48.548;2.704;2023-10-13T06:41:01;14.45;;;4.40;;
74679;SDS011;63211;48.548;2.704;2023-10-13T06:46:08;13.85;;;4.03;;
74679;SDS011;63211;48.548;2.704;2023-10-13T06:48:41;13.25;;;4.22;;
74679;SDS011;63211;48.548;2.704;2023-10-13T06:51:08;14.70;;;4.00;;
74679;SDS011;63211;48.548;2.704;2023-10-13T06:53:43;16.23;;;4.88;;
74679;SDS011;63211;48.548;2.704;2023-10-13T06:56:12;12.65;;;3.30;;
74679;SDS011;63211;48.548;2.704;2023-10-13T06:58:43;8.90;;;3.03;;
74679;SDS011;63211;48.548;2.704;2023-10-13T07:01:11;9.77;;;3.10;;
74679;SDS011;63211;48.548;2.704;2023-10-13T07:03:42;10.88;;;3.75;;
74679;SDS011;63211;48.548;2.704;2023-10-13T07:06:09;8.38;;;2.67;;
74679;SDS011;63211;48.548;2.704;2023-10-13T07:08:37;8.77;;;3.40;;
74679;SDS011;63211;48.548;2.704;2023-10-13T07:11:04;9.45;;;2.97;;
74679;SDS011;63211;48.548;2.704;2023-10-13T07:13:33;6.50;;;2.42;;
74679;SDS011;63211;48.548;2.704;2023-10-13T07:16:04;6.38;;;2.95;;
74679;SDS011;63211;48.548;2.704;2023-10-13T07:18:33;6.53;;;2.63;;
74679;SDS011;63211;48.548;2.704;2023-10-13T07:21:04;7.38;;;2.17;;
74679;SDS011;63211;48.548;2.704;2023-10-13T07:23:36;4.40;;;1.73;;
74679;SDS011;63211;48.548;2.704;2023-10-13T07:26:04;7.38;;;2.63;;
74679;SDS011;63211;48.548;2.704;2023-10-13T07:28:33;6.18;;;2.10;;
74679;SDS011;63211;48.548;2.704;2023-10-13T07:31:01;5.93;;;1.85;;
74679;SDS011;63211;48.548;2.704;2023-10-13T07:36:07;8.93;;;2.10;;
74679;SDS011;63211;48.548;2.704;2023-10-13T07:41:13;6.50;;;2.28;;
74679;SDS011;63211;48.548;2.704;2023-10-13T07:43:41;6.25;;;2.22;;
74679;SDS011;63211;48.548;2.704;2023-10-13T07:46:08;4.43;;;2.10;;
74679;SDS011;63211;48.548;2.704;2023-10-13T07:48:35;4.65;;;2.00;;
74679;SDS011;63211;48.548;2.704;2023-10-13T07:51:03;5.78;;;1.98;;
74679;SDS011;63211;48.548;2.704;2023-10-13T07:53:36;4.32;;;2.47;;
74679;SDS011;63211;48.548;2.704;2023-10-13T07:56:05;4.85;;;2.30;;
74679;SDS011;63211;48.548;2.704;2023-10-13T07:58:33;5.18;;;1.58;;
74679;SDS011;63211;48.548;2.704;2023-10-13T08:01:12;3.60;;;1.55;;
74679;SDS011;63211;48.548;2.704;2023-10-13T08:03:42;4.78;;;2.08;;
74679;SDS011;63211;48.548;2.704;2023-10-13T08:06:12;5.60;;;1.90;;
74679;SDS011;63211;48.548;2.704;2023-10-13T08:08:48;4.95;;;1.52;;
74679;SDS011;63211;48.548;2.704;2023-10-13T08:11:19;5.63;;;2.00;;
74679;SDS011;63211;48.548;2.704;2023-10-13T08:16:25;4.32;;;1.95;;
74679;SDS011;63211;48.548;2.704;2023-10-13T08:19:10;5.93;;;1.52;;
74679;SDS011;63211;48.548;2.704;2023-10-13T08:21:40;4.72;;;1.67;;
74679;SDS011;63211;48.548;2.704;2023-10-13T08:24:15;4.43;;;1.52;;
74679;SDS011;63211;48.548;2.704;2023-10-13T08:26:50;3.25;;;1.65;;
74679;SDS011;63211;48.548;2.704;2023-10-13T08:29:34;5.63;;;1.85;;
74679;SDS011;63211;48.548;2.704;2023-10-13T08:32:40;5.32;;;1.90;;
74679;SDS011;63211;48.548;2.704;2023-10-13T08:35:20;4.97;;;1.83;;
74679;SDS011;63211;48.548;2.704;2023-10-13T08:38:03;5.30;;;2.13;;
74679;SDS011;63211;48.548;2.704;2023-10-13T08:40:40;7.47;;;2.25;;
74679;SDS011;63211;48.548;2.704;2023-10-13T08:43:43;4.47;;;1.83;;
74679;SDS011;63211;48.548;2.704;2023-10-13T08:46:11;3.97;;;1.75;;
74679;SDS011;63211;48.548;2.704;2023-10-13T08:48:52;3.42;;;1.85;;
74679;SDS011;63211;48.548;2.704;2023-10-13T08:51:30;5.50;;;1.70;;
74679;SDS011;63211;48.548;2.704;2023-10-13T08:54:10;5.15;;;1.70;;
74679;SDS011;63211;48.548;2.704;2023-10-13T08:56:47;4.75;;;1.85;;
74679;SDS011;63211;48.548;2.704;2023-10-13T08:59:21;4.90;;;1.65;;
74679;SDS011;63211;48.548;2.704;2023-10-13T09:02:08;4.07;;;1.60;;
74679;SDS011;63211;48.548;2.704;2023-10-13T09:04:43;4.53;;;1.75;;
74679;SDS011;63211;48.548;2.704;2023-10-13T09:07:10;3.88;;;1.42;;
74679;SDS011;63211;48.548;2.704;2023-10-13T09:09:45;2.88;;;1.40;;
74679;SDS011;63211;48.548;2.704;2023-10-13T09:12:39;2.85;;;1.42;;
74679;SDS011;63211;48.548;2.704;2023-10-13T09:15:28;2.90;;;1.48;;
74679;SDS011;63211;48.548;2.704;2023-10-13T09:18:23;3.80;;;1.55;;
74679;SDS011;63211;48.548;2.704;2023-10-13T09:21:08;2.85;;;1.77;;
74679;SDS011;63211;48.548;2.704;2023-10-13T09:23:48;4.57;;;1.60;;
74679;SDS011;63211;48.548;2.704;2023-10-13T09:26:15;4.05;;;1.77;;
74679;SDS011;63211;48.548;2.704;2023-10-13T09:28:45;4.78;;;2.03;;
74679;SDS011;63211;48.548;2.704;2023-10-13T09:31:21;4.30;;;1.70;;
74679;SDS011;63211;48.548;2.704;2023-10-13T09:33:51;5.57;;;2.17;;
74679;SDS011;63211;48.548;2.704;2023-10-13T09:36:20;3.72;;;1.35;;
74679;SDS011;63211;48.548;2.704;2023-10-13T09:38:46;4.70;;;1.50;;
74679;SDS011;63211;48.548;2.704;2023-10-13T09:41:27;4.68;;;1.67;;
74679;SDS011;63211;48.548;2.704;2023-10-13T09:43:58;3.58;;;1.55;;
74679;SDS011;63211;48.548;2.704;2023-10-13T09:46:26;4.35;;;1.60;;
74679;SDS011;63211;48.548;2.704;2023-10-13T09:48:54;4.20;;;1.70;;
74679;SDS011;63211;48.548;2.704;2023-10-13T09:51:33;3.88;;;1.90;;
74679;SDS011;63211;48.548;2.704;2023-10-13T09:54:00;4.63;;;1.83;;
74679;SDS011;63211;48.548;2.704;2023-10-13T09:56:35;3.47;;;1.70;;
74679;SDS011;63211;48.548;2.704;2023-10-13T09:59:19;3.38;;;1.48;;
74679;SDS011;63211;48.548;2.704;2023-10-13T10:01:49;3.05;;;1.40;;
74679;SDS011;63211;48.548;2.704;2023-10-13T10:04:23;4.53;;;1.67;;
74679;SDS011;63211;48.548;2.704;2023-10-13T10:06:53;4.07;;;2.00;;
74679;SDS011;63211;48.548;2.704;2023-10-13T10:09:19;4.00;;;1.80;;
74679;SDS011;63211;48.548;2.704;2023-10-13T10:12:16;3.22;;;1.58;;
74679;SDS011;63211;48.548;2.704;2023-10-13T10:15:04;3.08;;;1.67;;
74679;SDS011;63211;48.548;2.704;2023-10-13T10:17:39;3.08;;;1.35;;
74679;SDS011;63211;48.548;2.704;2023-10-13T10:20:07;4.05;;;1.55;;
74679;SDS011;63211;48.548;2.704;2023-10-13T10:22:40;4.30;;;2.03;;
74679;SDS011;63211;48.548;2.704;2023-10-13T10:25:13;3.00;;;1.77;;
74679;SDS011;63211;48.548;2.704;2023-10-13T10:27:54;3.25;;;1.63;;
74679;SDS011;63211;48.548;2.704;2023-10-13T10:30:25;3.33;;;1.40;;
74679;SDS011;63211;48.548;2.704;2023-10-13T10:32:56;3.72;;;2.00;;
74679;SDS011;63211;48.548;2.704;2023-10-13T10:35:25;3.65;;;1.48;;
74679;SDS011;63211;48.548;2.704;2023-10-13T10:37:56;4.18;;;1.67;;
74679;SDS011;63211;48.548;2.704;2023-10-13T10:40:36;3.85;;;1.40;;
74679;SDS011;63211;48.548;2.704;2023-10-13T10:43:22;4.07;;;2.10;;
74679;SDS011;63211;48.548;2.704;2023-10-13T10:45:53;4.00;;;1.80;;
74679;SDS011;63211;48.548;2.704;2023-10-13T10:48:24;3.35;;;1.48;;
74679;SDS011;63211;48.548;2.704;2023-10-13T10:50:57;4.45;;;1.73;;
74679;SDS011;63211;48.548;2.704;2023-10-13T10:53:31;2.80;;;1.42;;
74679;SDS011;63211;48.548;2.704;2023-10-13T10:56:09;3.70;;;1.63;;
74679;SDS011;63211;48.548;2.704;2023-10-13T10:58:45;3.55;;;1.48;;
74679;SDS011;63211;48.548;2.704;2023-10-13T11:01:13;3.40;;;2.00;;
74679;SDS011;63211;48.548;2.704;2023-10-13T11:03:55;3.13;;;1.88;;
74679;SDS011;63211;48.548;2.704;2023-10-13T11:06:24;4.00;;;1.77;;
74679;SDS011;63211;48.548;2.704;2023-10-13T11:09:03;2.92;;;1.60;;
74679;SDS011;63211;48.548;2.704;2023-10-13T11:11:43;3.67;;;1.70;;
74679;SDS011;63211;48.548;2.704;2023-10-13T11:14:19;3.17;;;1.30;;
74679;SDS011;63211;48.548;2.704;2023-10-13T11:16:49;3.25;;;1.73;;
74679;SDS011;63211;48.548;2.704;2023-10-13T11:21:50;3.65;;;1.88;;
74679;SDS011;63211;48.548;2.704;2023-10-13T11:24:18;3.22;;;1.77;;
74679;SDS011;63211;48.548;2.704;2023-10-13T11:26:46;4.32;;;2.13;;
74679;SDS011;63211;48.548;2.704;2023-10-13T11:29:17;3.78;;;2.05;;
74679;SDS011;63211;48.548;2.704;2023-10-13T11:31:48;3.72;;;2.17;;
74679;SDS011;63211;48.548;2.704;2023-10-13T11:34:23;3.33;;;1.48;;
74679;SDS011;63211;48.548;2.704;2023-10-13T11:36:50;4.03;;;1.83;;
74679;SDS011;63211;48.548;2.704;2023-10-13T11:39:17;3.45;;;1.85;;
74679;SDS011;63211;48.548;2.704;2023-10-13T11:41:48;4.47;;;1.70;;
74679;SDS011;63211;48.548;2.704;2023-10-13T11:44:20;3.28;;;1.52;;
74679;SDS011;63211;48.548;2.704;2023-10-13T11:46:51;4.72;;;1.65;;
74679;SDS011;63211;48.548;2.704;2023-10-13T11:49:34;4.22;;;1.50;;
74679;SDS011;63211;48.548;2.704;2023-10-13T11:52:02;3.38;;;1.70;;
74679;SDS011;63211;48.548;2.704;2023-10-13T11:54:42;4.43;;;2.15;;
74679;SDS011;63211;48.548;2.704;2023-10-13T11:57:09;3.55;;;1.73;;
74679;SDS011;63211;48.548;2.704;2023-10-13T11:59:36;3.22;;;1.70;;
74679;SDS011;63211;48.548;2.704;2023-10-13T12:02:11;3.85;;;2.20;;
74679;SDS011;63211;48.548;2.704;2023-10-13T12:04:55;4.63;;;1.50;;
74679;SDS011;63211;48.548;2.704;2023-10-13T12:07:24;4.43;;;1.85;;
74679;SDS011;63211;48.548;2.704;2023-10-13T12:10:05;3.38;;;1.40;;
74679;SDS011;63211;48.548;2.704;2023-10-13T12:12:40;3.92;;;1.58;;
74679;SDS011;63211;48.548;2.704;2023-10-13T12:15:08;3.60;;;1.60;;
74679;SDS011;63211;48.548;2.704;2023-10-13T12:17:41;3.80;;;1.63;;
74679;SDS011;63211;48.548;2.704;2023-10-13T12:20:10;4.60;;;1.92;;
74679;SDS011;63211;48.548;2.704;2023-10-13T12:22:43;3.42;;;1.50;;
74679;SDS011;63211;48.548;2.704;2023-10-13T12:25:20;3.90;;;2.33;;
74679;SDS011;63211;48.548;2.704;2023-10-13T12:27:51;7.13;;;1.80;;
74679;SDS011;63211;48.548;2.704;2023-10-13T12:30:22;3.80;;;1.83;;
74679;SDS011;63211;48.548;2.704;2023-10-13T12:33:02;2.47;;;1.35;;
74679;SDS011;63211;48.548;2.704;2023-10-13T12:35:34;2.45;;;1.42;;
74679;SDS011;63211;48.548;2.704;2023-10-13T12:38:10;4.60;;;1.63;;
74679;SDS011;63211;48.548;2.704;2023-10-13T12:41:04;2.53;;;1.40;;
74679;SDS011;63211;48.548;2.704;2023-10-13T12:43:48;7.18;;;1.73;;
74679;SDS011;63211;48.548;2.704;2023-10-13T12:46:32;3.88;;;1.33;;
74679;SDS011;63211;48.548;2.704;2023-10-13T12:49:17;4.43;;;1.35;;
74679;SDS011;63211;48.548;2.704;2023-10-13T12:52:04;6.20;;;1.60;;
74679;SDS011;63211;48.548;2.704;2023-10-13T12:54:41;7.70;;;1.98;;
74679;SDS011;63211;48.548;2.704;2023-10-13T12:59:38;4.18;;;1.55;;
74679;SDS011;63211;48.548;2.704;2023-10-13T13:02:05;4.88;;;2.00;;
74679;SDS011;63211;48.548;2.704;2023-10-13T13:04:40;3.45;;;1.63;;
74679;SDS011;63211;48.548;2.704;2023-10-13T13:07:09;2.33;;;1.25;;
74679;SDS011;63211;48.548;2.704;2023-10-13T13:09:38;7.03;;;2.13;;
74679;SDS011;63211;48.548;2.704;2023-10-13T13:12:06;2.70;;;1.33;;
74679;SDS011;63211;48.548;2.704;2023-10-13T13:14:32;3.15;;;1.25;;
74679;SDS011;63211;48.548;2.704;2023-10-13T13:16:59;3.50;;;1.65;;
74679;SDS011;63211;48.548;2.704;2023-10-13T13:19:29;4.03;;;1.65;;
74679;SDS011;63211;48.548;2.704;2023-10-13T13:22:00;2.70;;;1.35;;
74679;SDS011;63211;48.548;2.704;2023-10-13T13:24:27;3.63;;;1.63;;
74679;SDS011;63211;48.548;2.704;2023-10-13T13:26:55;3.80;;;1.70;;
74679;SDS011;63211;48.548;2.704;2023-10-13T13:29:21;6.53;;;2.05;;
74679;SDS011;63211;48.548;2.704;2023-10-13T13:31:50;6.18;;;1.90;;
74679;SDS011;63211;48.548;2.704;2023-10-13T13:34:17;4.63;;;1.70;;
74679;SDS011;63211;48.548;2.704;2023-10-13T13:36:46;3.25;;;1.25;;
74679;SDS011;63211;48.548;2.704;2023-10-13T13:39:18;4.95;;;2.17;;
74679;SDS011;63211;48.548;2.704;2023-10-13T13:41:54;5.22;;;2.22;;
74679;SDS011;63211;48.548;2.704;2023-10-13T13:44:22;3.50;;;1.63;;
74679;SDS011;63211;48.548;2.704;2023-10-13T13:46:54;5.53;;;1.80;;
74679;SDS011;63211;48.548;2.704;2023-10-13T13:49:22;3.85;;;1.92;;
74679;SDS011;63211;48.548;2.704;2023-10-13T13:51:54;3.22;;;1.73;;
74679;SDS011;63211;48.548;2.704;2023-10-13T13:54:22;4.88;;;1.88;;
74679;SDS011;63211;48.548;2.704;2023-10-13T13:56:53;4.03;;;1.98;;
74679;SDS011;63211;48.548;2.704;2023-10-13T13:59:19;8.65;;;2.10;;
74679;SDS011;63211;48.548;2.704;2023-10-13T14:01:46;6.10;;;1.90;;
74679;SDS011;63211;48.548;2.704;2023-10-13T14:04:12;4.20;;;1.73;;
74679;SDS011;63211;48.548;2.704;2023-10-13T14:06:42;3.22;;;1.48;;
74679;SDS011;63211;48.548;2.704;2023-10-13T14:09:11;4.65;;;1.92;;
74679;SDS011;63211;48.548;2.704;2023-10-13T14:11:42;72.95;;;13.98;;
74679;SDS011;63211;48.548;2.704;2023-10-13T14:14:26;119.68;;;24.70;;
74679;SDS011;63211;48.548;2.704;2023-10-13T14:16:58;316.40;;;63.38;;
74679;SDS011;63211;48.548;2.704;2023-10-13T14:19:32;63.13;;;16.25;;
74679;SDS011;63211;48.548;2.704;2023-10-13T14:21:59;79.43;;;14.77;;
74679;SDS011;63211;48.548;2.704;2023-10-13T14:24:31;68.43;;;12.27;;
74679;SDS011;63211;48.548;2.704;2023-10-13T14:27:01;111.88;;;22.83;;
74679;SDS011;63211;48.548;2.704;2023-10-13T14:29:34;99.70;;;22.67;;
74679;SDS011;63211;48.548;2.704;2023-10-13T14:32:05;70.88;;;16.23;;
74679;SDS011;63211;48.548;2.704;2023-10-13T14:34:37;88.57;;;16.15;;
74679;SDS011;63211;48.548;2.704;2023-10-13T14:37:04;62.15;;;13.00;;
74679;SDS011;63211;48.548;2.704;2023-10-13T14:39:31;50.20;;;12.60;;
74679;SDS011;63211;48.548;2.704;2023-10-13T14:42:01;61.50;;;14.45;;
74679;SDS011;63211;48.548;2.704;2023-10-13T14:44:30;43.20;;;10.40;;
74679;SDS011;63211;48.548;2.704;2023-10-13T14:46:57;38.95;;;8.80;;
74679;SDS011;63211;48.548;2.704;2023-10-13T14:49:24;35.30;;;8.43;;
74679;SDS011;63211;48.548;2.704;2023-10-13T14:51:51;30.90;;;7.65;;
74679;SDS011;63211;48.548;2.704;2023-10-13T14:54:20;27.27;;;7.05;;
74679;SDS011;63211;48.548;2.704;2023-10-13T14:56:57;19.60;;;6.03;;
74679;SDS011;63211;48.548;2.704;2023-10-13T14:59:26;22.40;;;6.20;;
74679;SDS011;63211;48.548;2.704;2023-10-13T15:01:58;15.40;;;5.97;;
74679;SDS011;63211;48.548;2.704;2023-10-13T15:04:26;20.20;;;5.45;;
74679;SDS011;63211;48.548;2.704;2023-10-13T15:06:53;17.88;;;4.68;;
74679;SDS011;63211;48.548;2.704;2023-10-13T15:09:20;17.02;;;4.82;;
74679;SDS011;63211;48.548;2.704;2023-10-13T15:11:49;16.98;;;4.40;;
74679;SDS011;63211;48.548;2.704;2023-10-13T15:14:18;10.48;;;4.97;;
74679;SDS011;63211;48.548;2.704;2023-10-13T15:16:49;11.13;;;4.18;;
74679;SDS011;63211;48.548;2.704;2023-10-13T15:19:17;14.80;;;4.00;;
74679;SDS011;63211;48.548;2.704;2023-10-13T15:21:44;15.38;;;3.80;;
74679;SDS011;63211;48.548;2.704;2023-10-13T15:24:14;11.68;;;4.05;;
74679;SDS011;63211;48.548;2.704;2023-10-13T15:26:42;9.55;;;3.13;;
74679;SDS011;63211;48.548;2.704;2023-10-13T15:29:13;16.65;;;3.58;;
74679;SDS011;63211;48.548;2.704;2023-10-13T15:31:41;8.85;;;3.25;;
74679;SDS011;63211;48.548;2.704;2023-10-13T15:34:20;10.77;;;3.72;;
74679;SDS011;63211;48.548;2.704;2023-10-13T15:36:48;8.20;;;3.10;;
74679;SDS011;63211;48.548;2.704;2023-10-13T15:39:17;8.20;;;3.30;;
74679;SDS011;63211;48.548;2.704;2023-10-13T15:41:49;13.05;;;3.63;;
74679;SDS011;63211;48.548;2.704;2023-10-13T15:44:17;8.35;;;3.92;;